sensor_id;sensor_type;location;lat;lon;timestamp;P1;durP1;ratioP1;P2;durP2;ratioP2
70814;SDS011;58428;49.478;10.986;2022-08-21T00:02:24;9.80;;;6.13;;
70814;SDS011;58428;49.478;10.986;2022-08-21T00:04:51;11.00;;;5.72;;
70814;SDS011;58428;49.478;10.986;2022-08-21T00:07:18;11.35;;;5.43;;
70814;SDS011;58428;49.478;10.986;2022-08-21T00:09:44;9.95;;;5.07;;
70814;SDS011;58428;49.478;10.986;2022-08-21T00:12:09;8.27;;;4.90;;
70814;SDS011;58428;49.478;10.986;2022-08-21T00:14:35;10.60;;;5.82;;
70814;SDS011;58428;49.478;10.986;2022-08-21T00:17:02;9.45;;;5.32;;
70814;SDS011;58428;49.478;10.986;2022-08-21T00:19:29;9.80;;;5.10;;
70814;SDS011;58428;49.478;10.986;2022-08-21T00:21:55;8.75;;;5.30;;
70814;SDS011;58428;49.478;10.986;2022-08-21T00:24:20;8.32;;;5.10;;
70814;SDS011;58428;49.478;10.986;2022-08-21T00:26:47;8.63;;;4.78;;
70814;SDS011;58428;49.478;10.986;2022-08-21T00:29:14;9.40;;;4.70;;
70814;SDS011;58428;49.478;10.986;2022-08-21T00:31:40;11.00;;;6.22;;
70814;SDS011;58428;49.478;10.986;2022-08-21T00:34:07;12.00;;;6.55;;
70814;SDS011;58428;49.478;10.986;2022-08-21T00:36:33;8.45;;;5.47;;
70814;SDS011;58428;49.478;10.986;2022-08-21T00:38:59;9.60;;;4.82;;
70814;SDS011;58428;49.478;10.986;2022-08-21T00:41:25;8.95;;;5.30;;
70814;SDS011;58428;49.478;10.986;2022-08-21T00:43:52;9.52;;;5.90;;
70814;SDS011;58428;49.478;10.986;2022-08-21T00:46:20;9.30;;;5.68;;
70814;SDS011;58428;49.478;10.986;2022-08-21T00:48:45;9.30;;;5.82;;
70814;SDS011;58428;49.478;10.986;2022-08-21T00:51:19;10.00;;;5.60;;
70814;SDS011;58428;49.478;10.986;2022-08-21T00:53:51;8.45;;;5.43;;
70814;SDS011;58428;49.478;10.986;2022-08-21T00:56:20;8.77;;;5.75;;
70814;SDS011;58428;49.478;10.986;2022-08-21T00:58:47;11.43;;;5.43;;
70814;SDS011;58428;49.478;10.986;2022-08-21T01:01:13;9.93;;;5.60;;
70814;SDS011;58428;49.478;10.986;2022-08-21T01:03:39;9.68;;;5.50;;
70814;SDS011;58428;49.478;10.986;2022-08-21T01:06:06;9.15;;;5.60;;
70814;SDS011;58428;49.478;10.986;2022-08-21T01:08:34;10.10;;;5.82;;
70814;SDS011;58428;49.478;10.986;2022-08-21T01:11:00;10.52;;;6.30;;
70814;SDS011;58428;49.478;10.986;2022-08-21T01:13:27;7.68;;;5.03;;
70814;SDS011;58428;49.478;10.986;2022-08-21T01:15:56;10.00;;;5.85;;
70814;SDS011;58428;49.478;10.986;2022-08-21T01:18:24;8.35;;;5.30;;
70814;SDS011;58428;49.478;10.986;2022-08-21T01:23:34;9.60;;;5.28;;
70814;SDS011;58428;49.478;10.986;2022-08-21T01:26:02;10.15;;;5.38;;
70814;SDS011;58428;49.478;10.986;2022-08-21T01:28:31;9.13;;;5.25;;
70814;SDS011;58428;49.478;10.986;2022-08-21T01:31:02;9.43;;;5.28;;
70814;SDS011;58428;49.478;10.986;2022-08-21T01:33:30;9.15;;;5.60;;
70814;SDS011;58428;49.478;10.986;2022-08-21T01:35:56;10.38;;;5.05;;
70814;SDS011;58428;49.478;10.986;2022-08-21T01:38:21;8.50;;;5.00;;
70814;SDS011;58428;49.478;10.986;2022-08-21T01:40:47;8.68;;;5.00;;
70814;SDS011;58428;49.478;10.986;2022-08-21T01:43:14;9.25;;;5.55;;
70814;SDS011;58428;49.478;10.986;2022-08-21T01:45:39;8.57;;;5.18;;
70814;SDS011;58428;49.478;10.986;2022-08-21T01:48:04;10.60;;;5.50;;
70814;SDS011;58428;49.478;10.986;2022-08-21T01:50:30;8.52;;;5.38;;
70814;SDS011;58428;49.478;10.986;2022-08-21T01:52:55;11.13;;;5.90;;
70814;SDS011;58428;49.478;10.986;2022-08-21T01:55:22;9.43;;;5.40;;
70814;SDS011;58428;49.478;10.986;2022-08-21T01:57:48;9.38;;;5.75;;
70814;SDS011;58428;49.478;10.986;2022-08-21T02:00:15;10.65;;;5.80;;
70814;SDS011;58428;49.478;10.986;2022-08-21T02:02:49;9.88;;;5.50;;
70814;SDS011;58428;49.478;10.986;2022-08-21T02:05:15;9.80;;;5.22;;
70814;SDS011;58428;49.478;10.986;2022-08-21T02:07:42;9.38;;;5.68;;
70814;SDS011;58428;49.478;10.986;2022-08-21T02:10:13;10.38;;;5.72;;
70814;SDS011;58428;49.478;10.986;2022-08-21T02:12:42;10.02;;;5.13;;
70814;SDS011;58428;49.478;10.986;2022-08-21T02:15:07;7.95;;;4.70;;
70814;SDS011;58428;49.478;10.986;2022-08-21T02:17:54;8.10;;;5.28;;
70814;SDS011;58428;49.478;10.986;2022-08-21T02:20:28;9.20;;;4.85;;
70814;SDS011;58428;49.478;10.986;2022-08-21T02:22:56;8.10;;;5.03;;
70814;SDS011;58428;49.478;10.986;2022-08-21T02:25:24;10.18;;;6.13;;
70814;SDS011;58428;49.478;10.986;2022-08-21T02:27:51;8.02;;;5.22;;
70814;SDS011;58428;49.478;10.986;2022-08-21T02:30:18;9.52;;;5.47;;
70814;SDS011;58428;49.478;10.986;2022-08-21T02:32:47;9.10;;;5.63;;
70814;SDS011;58428;49.478;10.986;2022-08-21T02:35:14;8.70;;;5.30;;
70814;SDS011;58428;49.478;10.986;2022-08-21T02:37:46;12.23;;;6.18;;
70814;SDS011;58428;49.478;10.986;2022-08-21T02:40:19;9.48;;;5.82;;
70814;SDS011;58428;49.478;10.986;2022-08-21T02:42:49;10.82;;;6.13;;
70814;SDS011;58428;49.478;10.986;2022-08-21T02:45:14;10.77;;;6.05;;
70814;SDS011;58428;49.478;10.986;2022-08-21T02:47:52;14.15;;;6.78;;
70814;SDS011;58428;49.478;10.986;2022-08-21T02:50:24;13.43;;;7.55;;
70814;SDS011;58428;49.478;10.986;2022-08-21T02:52:52;11.60;;;7.18;;
70814;SDS011;58428;49.478;10.986;2022-08-21T02:55:18;14.05;;;7.28;;
70814;SDS011;58428;49.478;10.986;2022-08-21T02:57:45;14.60;;;7.40;;
70814;SDS011;58428;49.478;10.986;2022-08-21T03:00:13;13.88;;;7.38;;
70814;SDS011;58428;49.478;10.986;2022-08-21T03:02:41;14.50;;;7.63;;
70814;SDS011;58428;49.478;10.986;2022-08-21T03:05:08;12.32;;;6.80;;
70814;SDS011;58428;49.478;10.986;2022-08-21T03:07:35;12.90;;;7.15;;
70814;SDS011;58428;49.478;10.986;2022-08-21T03:10:02;10.90;;;6.78;;
70814;SDS011;58428;49.478;10.986;2022-08-21T03:12:28;10.05;;;6.65;;
70814;SDS011;58428;49.478;10.986;2022-08-21T03:14:54;13.63;;;7.07;;
70814;SDS011;58428;49.478;10.986;2022-08-21T03:17:19;11.77;;;6.88;;
70814;SDS011;58428;49.478;10.986;2022-08-21T03:19:45;12.75;;;7.72;;
70814;SDS011;58428;49.478;10.986;2022-08-21T03:22:10;16.42;;;7.00;;
70814;SDS011;58428;49.478;10.986;2022-08-21T03:24:36;11.45;;;6.93;;
70814;SDS011;58428;49.478;10.986;2022-08-21T03:27:02;11.60;;;7.00;;
70814;SDS011;58428;49.478;10.986;2022-08-21T03:29:28;13.00;;;6.18;;
70814;SDS011;58428;49.478;10.986;2022-08-21T03:31:53;11.05;;;6.30;;
70814;SDS011;58428;49.478;10.986;2022-08-21T03:34:19;13.35;;;6.80;;
70814;SDS011;58428;49.478;10.986;2022-08-21T03:36:46;12.02;;;7.13;;
70814;SDS011;58428;49.478;10.986;2022-08-21T03:39:13;11.68;;;6.63;;
70814;SDS011;58428;49.478;10.986;2022-08-21T03:41:39;11.73;;;6.45;;
70814;SDS011;58428;49.478;10.986;2022-08-21T03:44:05;10.50;;;6.45;;
70814;SDS011;58428;49.478;10.986;2022-08-21T03:46:30;10.77;;;6.53;;
70814;SDS011;58428;49.478;10.986;2022-08-21T03:48:56;10.07;;;6.13;;
70814;SDS011;58428;49.478;10.986;2022-08-21T03:51:22;10.52;;;5.97;;
70814;SDS011;58428;49.478;10.986;2022-08-21T03:53:47;10.85;;;6.50;;
70814;SDS011;58428;49.478;10.986;2022-08-21T03:56:14;12.95;;;6.78;;
70814;SDS011;58428;49.478;10.986;2022-08-21T03:58:41;8.48;;;5.53;;
70814;SDS011;58428;49.478;10.986;2022-08-21T04:01:07;10.73;;;5.72;;
70814;SDS011;58428;49.478;10.986;2022-08-21T04:03:33;15.52;;;5.90;;
70814;SDS011;58428;49.478;10.986;2022-08-21T04:06:00;9.00;;;5.60;;
70814;SDS011;58428;49.478;10.986;2022-08-21T04:10:54;9.73;;;5.30;;
70814;SDS011;58428;49.478;10.986;2022-08-21T04:13:21;9.05;;;5.18;;
70814;SDS011;58428;49.478;10.986;2022-08-21T04:15:48;8.20;;;5.18;;
70814;SDS011;58428;49.478;10.986;2022-08-21T04:18:14;8.05;;;5.13;;
70814;SDS011;58428;49.478;10.986;2022-08-21T04:20:40;10.10;;;6.28;;
70814;SDS011;58428;49.478;10.986;2022-08-21T04:23:08;10.35;;;5.82;;
70814;SDS011;58428;49.478;10.986;2022-08-21T04:25:33;10.25;;;5.72;;
70814;SDS011;58428;49.478;10.986;2022-08-21T04:27:59;16.63;;;7.03;;
70814;SDS011;58428;49.478;10.986;2022-08-21T04:30:27;10.15;;;6.28;;
70814;SDS011;58428;49.478;10.986;2022-08-21T04:35:20;17.08;;;6.40;;
70814;SDS011;58428;49.478;10.986;2022-08-21T04:37:48;11.93;;;5.68;;
70814;SDS011;58428;49.478;10.986;2022-08-21T04:40:18;8.85;;;5.60;;
70814;SDS011;58428;49.478;10.986;2022-08-21T04:42:46;11.52;;;5.60;;
70814;SDS011;58428;49.478;10.986;2022-08-21T04:47:49;33.38;;;7.13;;
70814;SDS011;58428;49.478;10.986;2022-08-21T04:50:15;11.23;;;6.35;;
70814;SDS011;58428;49.478;10.986;2022-08-21T04:52:41;11.18;;;6.32;;
70814;SDS011;58428;49.478;10.986;2022-08-21T04:55:06;12.45;;;6.38;;
70814;SDS011;58428;49.478;10.986;2022-08-21T04:57:33;10.57;;;6.43;;
70814;SDS011;58428;49.478;10.986;2022-08-21T04:59:59;11.43;;;6.43;;
70814;SDS011;58428;49.478;10.986;2022-08-21T05:02:25;11.52;;;6.03;;
70814;SDS011;58428;49.478;10.986;2022-08-21T05:04:52;9.90;;;6.07;;
70814;SDS011;58428;49.478;10.986;2022-08-21T05:07:23;11.77;;;5.93;;
70814;SDS011;58428;49.478;10.986;2022-08-21T05:09:52;10.10;;;6.38;;
70814;SDS011;58428;49.478;10.986;2022-08-21T05:12:19;8.82;;;5.47;;
70814;SDS011;58428;49.478;10.986;2022-08-21T05:14:44;10.60;;;5.70;;
70814;SDS011;58428;49.478;10.986;2022-08-21T05:17:10;9.13;;;5.50;;
70814;SDS011;58428;49.478;10.986;2022-08-21T05:19:35;21.25;;;6.30;;
70814;SDS011;58428;49.478;10.986;2022-08-21T05:22:01;10.63;;;6.25;;
70814;SDS011;58428;49.478;10.986;2022-08-21T05:24:27;9.20;;;5.63;;
70814;SDS011;58428;49.478;10.986;2022-08-21T05:26:53;8.30;;;5.50;;
70814;SDS011;58428;49.478;10.986;2022-08-21T05:29:18;11.57;;;6.03;;
70814;SDS011;58428;49.478;10.986;2022-08-21T05:31:45;13.35;;;5.95;;
70814;SDS011;58428;49.478;10.986;2022-08-21T05:34:15;13.02;;;6.05;;
70814;SDS011;58428;49.478;10.986;2022-08-21T05:36:43;10.35;;;6.20;;
70814;SDS011;58428;49.478;10.986;2022-08-21T05:39:09;12.75;;;6.32;;
70814;SDS011;58428;49.478;10.986;2022-08-21T05:41:37;10.52;;;6.32;;
70814;SDS011;58428;49.478;10.986;2022-08-21T05:44:03;18.83;;;6.97;;
70814;SDS011;58428;49.478;10.986;2022-08-21T05:46:28;8.75;;;5.93;;
70814;SDS011;58428;49.478;10.986;2022-08-21T05:48:54;9.63;;;5.85;;
70814;SDS011;58428;49.478;10.986;2022-08-21T05:51:19;13.52;;;6.65;;
70814;SDS011;58428;49.478;10.986;2022-08-21T05:53:45;10.80;;;6.57;;
70814;SDS011;58428;49.478;10.986;2022-08-21T05:56:12;9.55;;;6.03;;
70814;SDS011;58428;49.478;10.986;2022-08-21T05:58:38;10.02;;;6.00;;
70814;SDS011;58428;49.478;10.986;2022-08-21T06:01:05;9.85;;;6.10;;
70814;SDS011;58428;49.478;10.986;2022-08-21T06:03:33;9.43;;;6.40;;
70814;SDS011;58428;49.478;10.986;2022-08-21T06:06:00;11.20;;;6.60;;
70814;SDS011;58428;49.478;10.986;2022-08-21T06:08:26;8.88;;;5.65;;
70814;SDS011;58428;49.478;10.986;2022-08-21T06:10:53;9.38;;;6.03;;
70814;SDS011;58428;49.478;10.986;2022-08-21T06:13:21;8.18;;;5.80;;
70814;SDS011;58428;49.478;10.986;2022-08-21T06:15:49;10.07;;;6.43;;
70814;SDS011;58428;49.478;10.986;2022-08-21T06:18:16;8.95;;;5.65;;
70814;SDS011;58428;49.478;10.986;2022-08-21T06:20:43;8.77;;;6.10;;
70814;SDS011;58428;49.478;10.986;2022-08-21T06:23:11;10.05;;;6.60;;
70814;SDS011;58428;49.478;10.986;2022-08-21T06:25:37;9.43;;;5.88;;
70814;SDS011;58428;49.478;10.986;2022-08-21T06:28:04;12.25;;;6.25;;
70814;SDS011;58428;49.478;10.986;2022-08-21T06:30:31;9.75;;;6.55;;
70814;SDS011;58428;49.478;10.986;2022-08-21T06:32:58;9.50;;;6.35;;
70814;SDS011;58428;49.478;10.986;2022-08-21T06:35:23;9.50;;;6.65;;
70814;SDS011;58428;49.478;10.986;2022-08-21T06:37:49;9.30;;;6.13;;
70814;SDS011;58428;49.478;10.986;2022-08-21T06:40:35;8.13;;;5.25;;
70814;SDS011;58428;49.478;10.986;2022-08-21T06:43:05;8.57;;;5.68;;
70814;SDS011;58428;49.478;10.986;2022-08-21T06:45:36;8.57;;;5.53;;
70814;SDS011;58428;49.478;10.986;2022-08-21T06:48:03;8.13;;;5.47;;
70814;SDS011;58428;49.478;10.986;2022-08-21T06:50:30;9.63;;;5.88;;
70814;SDS011;58428;49.478;10.986;2022-08-21T06:52:59;8.98;;;5.90;;
70814;SDS011;58428;49.478;10.986;2022-08-21T06:55:33;8.27;;;5.57;;
70814;SDS011;58428;49.478;10.986;2022-08-21T06:57:59;9.05;;;5.88;;
70814;SDS011;58428;49.478;10.986;2022-08-21T07:00:25;9.63;;;6.80;;
70814;SDS011;58428;49.478;10.986;2022-08-21T07:02:51;12.48;;;7.30;;
70814;SDS011;58428;49.478;10.986;2022-08-21T07:05:17;9.18;;;5.93;;
70814;SDS011;58428;49.478;10.986;2022-08-21T07:07:42;9.57;;;6.80;;
70814;SDS011;58428;49.478;10.986;2022-08-21T07:10:08;11.73;;;7.00;;
70814;SDS011;58428;49.478;10.986;2022-08-21T07:12:33;8.65;;;6.18;;
70814;SDS011;58428;49.478;10.986;2022-08-21T07:15:00;8.80;;;5.75;;
70814;SDS011;58428;49.478;10.986;2022-08-21T07:17:25;9.50;;;6.50;;
70814;SDS011;58428;49.478;10.986;2022-08-21T07:19:52;8.98;;;6.15;;
70814;SDS011;58428;49.478;10.986;2022-08-21T07:22:20;9.57;;;6.50;;
70814;SDS011;58428;49.478;10.986;2022-08-21T07:24:46;9.80;;;5.95;;
70814;SDS011;58428;49.478;10.986;2022-08-21T07:27:11;8.85;;;5.60;;
70814;SDS011;58428;49.478;10.986;2022-08-21T07:29:37;8.75;;;5.88;;
70814;SDS011;58428;49.478;10.986;2022-08-21T07:32:03;7.82;;;5.50;;
70814;SDS011;58428;49.478;10.986;2022-08-21T07:34:29;10.10;;;7.05;;
70814;SDS011;58428;49.478;10.986;2022-08-21T07:36:55;9.13;;;6.22;;
70814;SDS011;58428;49.478;10.986;2022-08-21T07:39:23;10.43;;;7.20;;
70814;SDS011;58428;49.478;10.986;2022-08-21T07:41:50;9.02;;;6.32;;
70814;SDS011;58428;49.478;10.986;2022-08-21T07:44:16;10.63;;;7.10;;
70814;SDS011;58428;49.478;10.986;2022-08-21T07:46:42;10.90;;;7.18;;
70814;SDS011;58428;49.478;10.986;2022-08-21T07:49:08;10.05;;;7.03;;
70814;SDS011;58428;49.478;10.986;2022-08-21T07:51:33;10.43;;;7.20;;
70814;SDS011;58428;49.478;10.986;2022-08-21T07:53:59;14.18;;;8.35;;
70814;SDS011;58428;49.478;10.986;2022-08-21T07:56:25;10.15;;;6.82;;
70814;SDS011;58428;49.478;10.986;2022-08-21T07:58:52;11.57;;;7.50;;
70814;SDS011;58428;49.478;10.986;2022-08-21T08:01:18;9.73;;;6.68;;
70814;SDS011;58428;49.478;10.986;2022-08-21T08:03:43;8.60;;;6.53;;
70814;SDS011;58428;49.478;10.986;2022-08-21T08:06:10;10.60;;;6.88;;
70814;SDS011;58428;49.478;10.986;2022-08-21T08:08:40;8.70;;;6.85;;
70814;SDS011;58428;49.478;10.986;2022-08-21T08:11:08;8.82;;;6.25;;
70814;SDS011;58428;49.478;10.986;2022-08-21T08:13:53;9.95;;;7.07;;
70814;SDS011;58428;49.478;10.986;2022-08-21T08:16:19;9.48;;;7.03;;
70814;SDS011;58428;49.478;10.986;2022-08-21T08:18:45;8.85;;;6.30;;
70814;SDS011;58428;49.478;10.986;2022-08-21T08:21:11;11.05;;;7.97;;
70814;SDS011;58428;49.478;10.986;2022-08-21T08:23:37;10.18;;;7.00;;
70814;SDS011;58428;49.478;10.986;2022-08-21T08:26:03;9.13;;;6.50;;
70814;SDS011;58428;49.478;10.986;2022-08-21T08:28:30;8.55;;;5.85;;
70814;SDS011;58428;49.478;10.986;2022-08-21T08:30:57;9.57;;;6.90;;
70814;SDS011;58428;49.478;10.986;2022-08-21T08:33:23;10.15;;;7.35;;
70814;SDS011;58428;49.478;10.986;2022-08-21T08:35:49;9.15;;;6.65;;
70814;SDS011;58428;49.478;10.986;2022-08-21T08:38:18;10.85;;;7.97;;
70814;SDS011;58428;49.478;10.986;2022-08-21T08:41:00;11.27;;;7.72;;
70814;SDS011;58428;49.478;10.986;2022-08-21T08:43:37;9.50;;;7.00;;
70814;SDS011;58428;49.478;10.986;2022-08-21T08:46:04;10.05;;;6.90;;
70814;SDS011;58428;49.478;10.986;2022-08-21T08:48:47;11.25;;;7.38;;
70814;SDS011;58428;49.478;10.986;2022-08-21T08:52:00;9.63;;;7.30;;
70814;SDS011;58428;49.478;10.986;2022-08-21T08:57:28;9.30;;;6.90;;
70814;SDS011;58428;49.478;10.986;2022-08-21T08:59:56;8.15;;;6.20;;
70814;SDS011;58428;49.478;10.986;2022-08-21T09:02:25;10.30;;;7.80;;
70814;SDS011;58428;49.478;10.986;2022-08-21T09:04:52;11.00;;;7.35;;
70814;SDS011;58428;49.478;10.986;2022-08-21T09:07:29;10.32;;;7.82;;
70814;SDS011;58428;49.478;10.986;2022-08-21T09:12:56;9.80;;;7.65;;
70814;SDS011;58428;49.478;10.986;2022-08-21T09:15:33;9.15;;;6.88;;
70814;SDS011;58428;49.478;10.986;2022-08-21T09:18:27;10.20;;;7.30;;
70814;SDS011;58428;49.478;10.986;2022-08-21T09:29:38;8.70;;;6.80;;
70814;SDS011;58428;49.478;10.986;2022-08-21T09:32:20;8.60;;;6.50;;
70814;SDS011;58428;49.478;10.986;2022-08-21T09:37:33;9.95;;;7.50;;
70814;SDS011;58428;49.478;10.986;2022-08-21T09:40:20;9.02;;;6.95;;
70814;SDS011;58428;49.478;10.986;2022-08-21T09:43:06;9.50;;;7.35;;
70814;SDS011;58428;49.478;10.986;2022-08-21T09:45:42;11.20;;;8.38;;
70814;SDS011;58428;49.478;10.986;2022-08-21T09:50:52;8.32;;;6.22;;
70814;SDS011;58428;49.478;10.986;2022-08-21T09:53:26;9.88;;;8.07;;
70814;SDS011;58428;49.478;10.986;2022-08-21T09:55:56;8.82;;;6.72;;
70814;SDS011;58428;49.478;10.986;2022-08-21T09:58:44;10.30;;;7.63;;
70814;SDS011;58428;49.478;10.986;2022-08-21T10:01:17;10.85;;;8.23;;
70814;SDS011;58428;49.478;10.986;2022-08-21T10:03:46;9.82;;;7.50;;
70814;SDS011;58428;49.478;10.986;2022-08-21T10:06:23;11.18;;;8.27;;
70814;SDS011;58428;49.478;10.986;2022-08-21T10:09:02;9.95;;;7.50;;
70814;SDS011;58428;49.478;10.986;2022-08-21T10:11:34;9.10;;;6.88;;
70814;SDS011;58428;49.478;10.986;2022-08-21T10:17:07;7.78;;;5.97;;
70814;SDS011;58428;49.478;10.986;2022-08-21T10:19:48;8.60;;;6.35;;
70814;SDS011;58428;49.478;10.986;2022-08-21T10:41:14;8.32;;;6.47;;
70814;SDS011;58428;49.478;10.986;2022-08-21T10:52:02;8.65;;;6.63;;
70814;SDS011;58428;49.478;10.986;2022-08-21T10:57:46;8.82;;;6.85;;
70814;SDS011;58428;49.478;10.986;2022-08-21T11:00:14;9.45;;;7.60;;
70814;SDS011;58428;49.478;10.986;2022-08-21T11:05:40;9.48;;;7.20;;
70814;SDS011;58428;49.478;10.986;2022-08-21T11:10:58;9.68;;;6.93;;
70814;SDS011;58428;49.478;10.986;2022-08-21T11:13:41;9.35;;;6.95;;
70814;SDS011;58428;49.478;10.986;2022-08-21T11:16:14;9.55;;;7.68;;
70814;SDS011;58428;49.478;10.986;2022-08-21T11:29:40;7.90;;;5.70;;
70814;SDS011;58428;49.478;10.986;2022-08-21T11:37:22;6.90;;;5.07;;
70814;SDS011;58428;49.478;10.986;2022-08-21T11:42:55;6.85;;;4.80;;
70814;SDS011;58428;49.478;10.986;2022-08-21T11:45:53;7.43;;;5.00;;
70814;SDS011;58428;49.478;10.986;2022-08-21T11:51:06;6.88;;;4.72;;
70814;SDS011;58428;49.478;10.986;2022-08-21T11:53:46;7.95;;;4.88;;
70814;SDS011;58428;49.478;10.986;2022-08-21T11:56:26;6.55;;;4.10;;
70814;SDS011;58428;49.478;10.986;2022-08-21T11:59:06;6.32;;;4.35;;
70814;SDS011;58428;49.478;10.986;2022-08-21T12:01:36;6.60;;;4.22;;
70814;SDS011;58428;49.478;10.986;2022-08-21T12:04:08;7.43;;;4.05;;
70814;SDS011;58428;49.478;10.986;2022-08-21T12:06:41;5.50;;;3.80;;
70814;SDS011;58428;49.478;10.986;2022-08-21T12:14:47;6.10;;;4.10;;
70814;SDS011;58428;49.478;10.986;2022-08-21T12:17:18;6.03;;;4.60;;
70814;SDS011;58428;49.478;10.986;2022-08-21T12:19:58;6.53;;;4.60;;
70814;SDS011;58428;49.478;10.986;2022-08-21T12:22:38;5.70;;;3.90;;
70814;SDS011;58428;49.478;10.986;2022-08-21T12:25:44;6.03;;;4.35;;
70814;SDS011;58428;49.478;10.986;2022-08-21T12:28:34;5.47;;;3.70;;
70814;SDS011;58428;49.478;10.986;2022-08-21T12:31:00;6.35;;;4.22;;
70814;SDS011;58428;49.478;10.986;2022-08-21T12:33:47;5.60;;;4.22;;
70814;SDS011;58428;49.478;10.986;2022-08-21T12:36:20;5.78;;;3.80;;
70814;SDS011;58428;49.478;10.986;2022-08-21T12:38:55;6.53;;;4.10;;
70814;SDS011;58428;49.478;10.986;2022-08-21T12:41:37;5.50;;;3.95;;
70814;SDS011;58428;49.478;10.986;2022-08-21T12:44:13;6.20;;;3.90;;
70814;SDS011;58428;49.478;10.986;2022-08-21T12:46:55;6.32;;;4.00;;
70814;SDS011;58428;49.478;10.986;2022-08-21T12:49:30;5.85;;;4.05;;
70814;SDS011;58428;49.478;10.986;2022-08-21T12:54:40;5.70;;;4.00;;
70814;SDS011;58428;49.478;10.986;2022-08-21T12:57:07;5.72;;;3.50;;
70814;SDS011;58428;49.478;10.986;2022-08-21T12:59:43;4.72;;;3.42;;
70814;SDS011;58428;49.478;10.986;2022-08-21T13:02:13;5.30;;;3.63;;
70814;SDS011;58428;49.478;10.986;2022-08-21T13:04:42;5.40;;;3.70;;
70814;SDS011;58428;49.478;10.986;2022-08-21T13:07:11;6.55;;;4.22;;
70814;SDS011;58428;49.478;10.986;2022-08-21T13:09:47;5.15;;;3.90;;
70814;SDS011;58428;49.478;10.986;2022-08-21T13:12:19;5.40;;;3.90;;
70814;SDS011;58428;49.478;10.986;2022-08-21T13:14:46;4.68;;;3.25;;
70814;SDS011;58428;49.478;10.986;2022-08-21T13:17:16;5.68;;;3.65;;
70814;SDS011;58428;49.478;10.986;2022-08-21T13:19:52;5.82;;;3.40;;
70814;SDS011;58428;49.478;10.986;2022-08-21T13:22:30;4.95;;;3.60;;
70814;SDS011;58428;49.478;10.986;2022-08-21T13:24:56;5.22;;;3.67;;
70814;SDS011;58428;49.478;10.986;2022-08-21T13:30:05;5.80;;;3.40;;
70814;SDS011;58428;49.478;10.986;2022-08-21T13:32:34;6.40;;;4.90;;
70814;SDS011;58428;49.478;10.986;2022-08-21T13:35:10;4.93;;;3.47;;
70814;SDS011;58428;49.478;10.986;2022-08-21T13:37:39;5.32;;;3.90;;
70814;SDS011;58428;49.478;10.986;2022-08-21T13:40:09;5.53;;;3.70;;
70814;SDS011;58428;49.478;10.986;2022-08-21T13:42:40;4.90;;;3.60;;
70814;SDS011;58428;49.478;10.986;2022-08-21T13:45:13;5.30;;;3.60;;
70814;SDS011;58428;49.478;10.986;2022-08-21T13:47:47;5.32;;;3.22;;
70814;SDS011;58428;49.478;10.986;2022-08-21T13:50:13;5.53;;;3.58;;
70814;SDS011;58428;49.478;10.986;2022-08-21T13:52:55;5.50;;;3.42;;
70814;SDS011;58428;49.478;10.986;2022-08-21T13:55:21;4.68;;;3.42;;
70814;SDS011;58428;49.478;10.986;2022-08-21T13:58:00;6.28;;;3.60;;
70814;SDS011;58428;49.478;10.986;2022-08-21T14:00:29;5.00;;;3.38;;
70814;SDS011;58428;49.478;10.986;2022-08-21T14:03:02;5.95;;;3.75;;
70814;SDS011;58428;49.478;10.986;2022-08-21T14:05:32;5.57;;;3.50;;
70814;SDS011;58428;49.478;10.986;2022-08-21T14:10:41;5.07;;;3.08;;
70814;SDS011;58428;49.478;10.986;2022-08-21T14:13:19;5.25;;;3.40;;
70814;SDS011;58428;49.478;10.986;2022-08-21T14:16:03;3.78;;;2.65;;
70814;SDS011;58428;49.478;10.986;2022-08-21T14:18:45;4.68;;;3.05;;
70814;SDS011;58428;49.478;10.986;2022-08-21T14:21:22;4.47;;;3.20;;
70814;SDS011;58428;49.478;10.986;2022-08-21T14:24:04;6.07;;;3.10;;
70814;SDS011;58428;49.478;10.986;2022-08-21T14:26:36;4.55;;;3.10;;
70814;SDS011;58428;49.478;10.986;2022-08-21T14:29:09;4.68;;;3.20;;
70814;SDS011;58428;49.478;10.986;2022-08-21T14:31:37;4.78;;;3.13;;
70814;SDS011;58428;49.478;10.986;2022-08-21T14:34:02;4.68;;;3.40;;
70814;SDS011;58428;49.478;10.986;2022-08-21T14:36:29;4.43;;;2.85;;
70814;SDS011;58428;49.478;10.986;2022-08-21T14:38:54;4.40;;;2.92;;
70814;SDS011;58428;49.478;10.986;2022-08-21T14:41:24;10.02;;;7.22;;
70814;SDS011;58428;49.478;10.986;2022-08-21T14:43:53;4.55;;;3.35;;
70814;SDS011;58428;49.478;10.986;2022-08-21T14:46:25;4.93;;;2.95;;
70814;SDS011;58428;49.478;10.986;2022-08-21T14:49:02;5.15;;;3.33;;
70814;SDS011;58428;49.478;10.986;2022-08-21T14:51:28;4.63;;;2.90;;
70814;SDS011;58428;49.478;10.986;2022-08-21T14:53:54;5.10;;;3.40;;
70814;SDS011;58428;49.478;10.986;2022-08-21T14:56:20;4.88;;;3.20;;
70814;SDS011;58428;49.478;10.986;2022-08-21T14:58:48;5.28;;;2.92;;
70814;SDS011;58428;49.478;10.986;2022-08-21T15:01:17;4.43;;;3.05;;
70814;SDS011;58428;49.478;10.986;2022-08-21T15:03:44;5.32;;;3.10;;
70814;SDS011;58428;49.478;10.986;2022-08-21T15:06:13;7.18;;;4.85;;
70814;SDS011;58428;49.478;10.986;2022-08-21T15:08:39;4.88;;;3.33;;
70814;SDS011;58428;49.478;10.986;2022-08-21T15:11:07;4.57;;;2.90;;
70814;SDS011;58428;49.478;10.986;2022-08-21T15:13:36;4.38;;;3.03;;
70814;SDS011;58428;49.478;10.986;2022-08-21T15:16:03;5.10;;;3.00;;
70814;SDS011;58428;49.478;10.986;2022-08-21T15:18:29;4.38;;;2.90;;
70814;SDS011;58428;49.478;10.986;2022-08-21T15:20:55;4.28;;;2.70;;
70814;SDS011;58428;49.478;10.986;2022-08-21T15:23:22;4.57;;;2.60;;
70814;SDS011;58428;49.478;10.986;2022-08-21T15:25:50;4.95;;;3.47;;
70814;SDS011;58428;49.478;10.986;2022-08-21T15:28:17;5.32;;;3.92;;
70814;SDS011;58428;49.478;10.986;2022-08-21T15:30:43;8.38;;;6.00;;
70814;SDS011;58428;49.478;10.986;2022-08-21T15:33:11;5.55;;;3.90;;
70814;SDS011;58428;49.478;10.986;2022-08-21T15:35:37;7.45;;;5.03;;
70814;SDS011;58428;49.478;10.986;2022-08-21T15:38:02;7.35;;;5.00;;
70814;SDS011;58428;49.478;10.986;2022-08-21T15:40:28;5.68;;;3.95;;
70814;SDS011;58428;49.478;10.986;2022-08-21T15:42:59;5.60;;;4.10;;
70814;SDS011;58428;49.478;10.986;2022-08-21T15:45:27;7.28;;;3.53;;
70814;SDS011;58428;49.478;10.986;2022-08-21T15:47:54;5.82;;;3.50;;
70814;SDS011;58428;49.478;10.986;2022-08-21T15:50:21;5.57;;;3.80;;
70814;SDS011;58428;49.478;10.986;2022-08-21T15:52:47;4.82;;;3.53;;
70814;SDS011;58428;49.478;10.986;2022-08-21T15:55:14;4.38;;;3.00;;
70814;SDS011;58428;49.478;10.986;2022-08-21T15:57:45;7.05;;;4.63;;
70814;SDS011;58428;49.478;10.986;2022-08-21T16:00:18;5.60;;;3.70;;
70814;SDS011;58428;49.478;10.986;2022-08-21T16:02:48;9.88;;;6.07;;
70814;SDS011;58428;49.478;10.986;2022-08-21T16:05:18;7.75;;;4.93;;
70814;SDS011;58428;49.478;10.986;2022-08-21T16:07:44;7.00;;;3.42;;
70814;SDS011;58428;49.478;10.986;2022-08-21T16:10:12;6.57;;;3.85;;
70814;SDS011;58428;49.478;10.986;2022-08-21T16:12:42;6.65;;;3.67;;
70814;SDS011;58428;49.478;10.986;2022-08-21T16:15:12;6.03;;;3.20;;
70814;SDS011;58428;49.478;10.986;2022-08-21T16:17:39;5.28;;;3.22;;
70814;SDS011;58428;49.478;10.986;2022-08-21T16:20:10;8.60;;;6.20;;
70814;SDS011;58428;49.478;10.986;2022-08-21T16:22:36;6.93;;;4.47;;
70814;SDS011;58428;49.478;10.986;2022-08-21T16:25:03;7.05;;;4.72;;
70814;SDS011;58428;49.478;10.986;2022-08-21T16:27:30;7.40;;;5.20;;
70814;SDS011;58428;49.478;10.986;2022-08-21T16:29:56;10.35;;;6.68;;